sensor_id;sensor_type;location;lat;lon;timestamp;temperature;humidity
46416;DHT22;32620;51.704;7.822;2022-11-28T00:00:12;7.40;99.90
46416;DHT22;32620;51.704;7.822;2022-11-28T00:02:37;7.40;99.90
46416;DHT22;32620;51.704;7.822;2022-11-28T00:05:03;7.40;99.90
46416;DHT22;32620;51.704;7.822;2022-11-28T00:07:28;7.40;99.90
46416;DHT22;32620;51.704;7.822;2022-11-28T00:09:54;7.30;99.90
46416;DHT22;32620;51.704;7.822;2022-11-28T00:12:19;7.30;99.90
46416;DHT22;32620;51.704;7.822;2022-11-28T00:14:44;7.20;99.90
46416;DHT22;32620;51.704;7.822;2022-11-28T00:17:10;7.20;99.90
46416;DHT22;32620;51.704;7.822;2022-11-28T00:19:35;7.10;99.90
46416;DHT22;32620;51.704;7.822;2022-11-28T00:22:01;7.10;99.90
46416;DHT22;32620;51.704;7.822;2022-11-28T00:24:27;7.00;99.90
46416;DHT22;32620;51.704;7.822;2022-11-28T00:26:52;7.10;99.90
46416;DHT22;32620;51.704;7.822;2022-11-28T00:29:18;7.00;99.90
46416;DHT22;32620;51.704;7.822;2022-11-28T00:31:43;7.00;99.90
46416;DHT22;32620;51.704;7.822;2022-11-28T00:34:11;7.00;99.90
46416;DHT22;32620;51.704;7.822;2022-11-28T00:36:36;7.10;99.90
46416;DHT22;32620;51.704;7.822;2022-11-28T00:39:02;7.00;99.90
46416;DHT22;32620;51.704;7.822;2022-11-28T00:41:28;7.00;99.90
46416;DHT22;32620;51.704;7.822;2022-11-28T00:43:55;7.00;99.90
46416;DHT22;32620;51.704;7.822;2022-11-28T00:46:21;6.90;99.90
46416;DHT22;32620;51.704;7.822;2022-11-28T00:48:47;7.00;99.90
46416;DHT22;32620;51.704;7.822;2022-11-28T00:51:15;7.00;99.90
46416;DHT22;32620;51.704;7.822;2022-11-28T00:53:41;7.00;99.90
46416;DHT22;32620;51.704;7.822;2022-11-28T00:56:08;6.90;99.90
46416;DHT22;32620;51.704;7.822;2022-11-28T00:58:35;6.90;99.90
46416;DHT22;32620;51.704;7.822;2022-11-28T01:03:44;7.00;99.90
46416;DHT22;32620;51.704;7.822;2022-11-28T01:06:10;7.00;99.90
46416;DHT22;32620;51.704;7.822;2022-11-28T01:08:36;6.90;99.90
46416;DHT22;32620;51.704;7.822;2022-11-28T01:11:01;7.00;99.90
46416;DHT22;32620;51.704;7.822;2022-11-28T01:13:27;7.00;99.90
46416;DHT22;32620;51.704;7.822;2022-11-28T01:15:53;7.00;99.90
46416;DHT22;32620;51.704;7.822;2022-11-28T01:18:18;7.00;99.90
46416;DHT22;32620;51.704;7.822;2022-11-28T01:20:43;7.00;99.90
46416;DHT22;32620;51.704;7.822;2022-11-28T01:23:09;6.90;99.90
46416;DHT22;32620;51.704;7.822;2022-11-28T01:25:35;7.00;99.90
46416;DHT22;32620;51.704;7.822;2022-11-28T01:28:00;6.90;99.90
46416;DHT22;32620;51.704;7.822;2022-11-28T01:30:26;6.90;99.90
46416;DHT22;32620;51.704;7.822;2022-11-28T01:32:51;6.90;99.90
46416;DHT22;32620;51.704;7.822;2022-11-28T01:35:17;6.90;99.90
46416;DHT22;32620;51.704;7.822;2022-11-28T01:37:42;6.80;99.90
46416;DHT22;32620;51.704;7.822;2022-11-28T01:40:09;6.90;99.90
46416;DHT22;32620;51.704;7.822;2022-11-28T01:42:35;6.80;99.90
46416;DHT22;32620;51.704;7.822;2022-11-28T01:45:03;6.80;99.90
46416;DHT22;32620;51.704;7.822;2022-11-28T01:47:29;6.80;99.90
46416;DHT22;32620;51.704;7.822;2022-11-28T01:49:55;6.70;99.90
46416;DHT22;32620;51.704;7.822;2022-11-28T01:52:20;6.70;99.90
46416;DHT22;32620;51.704;7.822;2022-11-28T01:54:48;6.70;99.90
46416;DHT22;32620;51.704;7.822;2022-11-28T01:57:16;6.70;99.90
46416;DHT22;32620;51.704;7.822;2022-11-28T01:59:44;6.70;99.90
46416;DHT22;32620;51.704;7.822;2022-11-28T02:02:13;6.70;99.90
46416;DHT22;32620;51.704;7.822;2022-11-28T02:04:40;6.70;99.90
46416;DHT22;32620;51.704;7.822;2022-11-28T02:07:06;6.70;99.90
46416;DHT22;32620;51.704;7.822;2022-11-28T02:09:32;6.70;99.90
46416;DHT22;32620;51.704;7.822;2022-11-28T02:12:39;6.70;99.90
46416;DHT22;32620;51.704;7.822;2022-11-28T02:25:55;6.80;99.90
46416;DHT22;32620;51.704;7.822;2022-11-28T02:34:12;6.80;99.90
46416;DHT22;32620;51.704;7.822;2022-11-28T02:36:46;6.80;99.90
46416;DHT22;32620;51.704;7.822;2022-11-28T02:39:18;6.80;99.90
46416;DHT22;32620;51.704;7.822;2022-11-28T02:42:06;6.80;99.90
46416;DHT22;32620;51.704;7.822;2022-11-28T02:44:38;6.80;99.90
46416;DHT22;32620;51.704;7.822;2022-11-28T02:47:12;6.80;99.90
46416;DHT22;32620;51.704;7.822;2022-11-28T02:49:42;6.80;99.90
46416;DHT22;32620;51.704;7.822;2022-11-28T02:52:12;6.90;99.90
46416;DHT22;32620;51.704;7.822;2022-11-28T02:54:39;6.80;99.90
46416;DHT22;32620;51.704;7.822;2022-11-28T02:57:05;6.90;99.90
46416;DHT22;32620;51.704;7.822;2022-11-28T02:59:43;6.80;99.90
46416;DHT22;32620;51.704;7.822;2022-11-28T03:02:12;6.80;99.90
46416;DHT22;32620;51.704;7.822;2022-11-28T03:05:11;6.90;99.90
46416;DHT22;32620;51.704;7.822;2022-11-28T03:12:55;6.80;99.90
46416;DHT22;32620;51.704;7.822;2022-11-28T03:15:30;6.80;99.90
46416;DHT22;32620;51.704;7.822;2022-11-28T03:18:00;6.70;99.90
46416;DHT22;32620;51.704;7.822;2022-11-28T03:20:30;6.70;99.90
46416;DHT22;32620;51.704;7.822;2022-11-28T03:23:15;6.60;99.90
46416;DHT22;32620;51.704;7.822;2022-11-28T03:25:48;6.60;99.90
46416;DHT22;32620;51.704;7.822;2022-11-28T03:28:30;6.60;99.90
46416;DHT22;32620;51.704;7.822;2022-11-28T03:31:06;6.60;99.90
46416;DHT22;32620;51.704;7.822;2022-11-28T03:33:33;6.60;99.90
46416;DHT22;32620;51.704;7.822;2022-11-28T03:36:02;6.50;99.90
46416;DHT22;32620;51.704;7.822;2022-11-28T03:38:33;6.60;99.90
46416;DHT22;32620;51.704;7.822;2022-11-28T03:41:00;6.60;99.90
46416;DHT22;32620;51.704;7.822;2022-11-28T03:43:29;6.60;99.90
46416;DHT22;32620;51.704;7.822;2022-11-28T03:45:57;6.60;99.90
46416;DHT22;32620;51.704;7.822;2022-11-28T03:48:29;6.70;99.90
46416;DHT22;32620;51.704;7.822;2022-11-28T03:50:58;6.70;99.90
46416;DHT22;32620;51.704;7.822;2022-11-28T03:53:25;6.80;99.90
46416;DHT22;32620;51.704;7.822;2022-11-28T03:55:56;6.80;99.90
46416;DHT22;32620;51.704;7.822;2022-11-28T03:58:42;6.80;99.90
46416;DHT22;32620;51.704;7.822;2022-11-28T04:01:26;6.80;99.90
46416;DHT22;32620;51.704;7.822;2022-11-28T04:03:54;6.80;99.90
46416;DHT22;32620;51.704;7.822;2022-11-28T04:06:25;6.90;99.90
46416;DHT22;32620;51.704;7.822;2022-11-28T04:08:56;6.90;99.90
46416;DHT22;32620;51.704;7.822;2022-11-28T04:11:24;6.90;99.90
46416;DHT22;32620;51.704;7.822;2022-11-28T04:14:23;6.90;99.90
46416;DHT22;32620;51.704;7.822;2022-11-28T04:16:38;7.00;99.90
46416;DHT22;32620;51.704;7.822;2022-11-28T04:19:13;7.10;99.90
46416;DHT22;32620;51.704;7.822;2022-11-28T04:21:43;7.00;99.90
46416;DHT22;32620;51.704;7.822;2022-11-28T04:24:12;7.10;99.90
46416;DHT22;32620;51.704;7.822;2022-11-28T04:26:41;7.10;99.90
46416;DHT22;32620;51.704;7.822;2022-11-28T04:29:08;7.10;99.90
46416;DHT22;32620;51.704;7.822;2022-11-28T04:31:35;7.10;99.90
46416;DHT22;32620;51.704;7.822;2022-11-28T04:34:03;7.10;99.90
46416;DHT22;32620;51.704;7.822;2022-11-28T04:36:30;7.10;99.90
46416;DHT22;32620;51.704;7.822;2022-11-28T04:38:56;7.10;99.90
46416;DHT22;32620;51.704;7.822;2022-11-28T04:41:23;7.10;99.90
46416;DHT22;32620;51.704;7.822;2022-11-28T04:43:52;7.10;99.90
46416;DHT22;32620;51.704;7.822;2022-11-28T04:46:20;7.10;99.90
46416;DHT22;32620;51.704;7.822;2022-11-28T04:48:49;7.20;99.90
46416;DHT22;32620;51.704;7.822;2022-11-28T04:53:45;7.10;99.90
46416;DHT22;32620;51.704;7.822;2022-11-28T04:56:12;7.10;99.90
46416;DHT22;32620;51.704;7.822;2022-11-28T04:58:42;7.10;99.90
46416;DHT22;32620;51.704;7.822;2022-11-28T05:01:09;7.10;99.90
46416;DHT22;32620;51.704;7.822;2022-11-28T05:03:36;7.10;99.90
46416;DHT22;32620;51.704;7.822;2022-11-28T05:06:02;7.10;99.90
46416;DHT22;32620;51.704;7.822;2022-11-28T05:08:28;7.10;99.90
46416;DHT22;32620;51.704;7.822;2022-11-28T05:10:53;7.00;99.90
46416;DHT22;32620;51.704;7.822;2022-11-28T05:13:19;7.00;99.90
46416;DHT22;32620;51.704;7.822;2022-11-28T05:15:44;7.00;99.90
46416;DHT22;32620;51.704;7.822;2022-11-28T05:18:09;7.00;99.90
46416;DHT22;32620;51.704;7.822;2022-11-28T05:20:35;6.90;99.90
46416;DHT22;32620;51.704;7.822;2022-11-28T05:23:01;6.90;99.90
46416;DHT22;32620;51.704;7.822;2022-11-28T05:25:27;6.90;99.90
46416;DHT22;32620;51.704;7.822;2022-11-28T05:27:52;6.90;99.90
46416;DHT22;32620;51.704;7.822;2022-11-28T05:30:18;6.90;99.90
46416;DHT22;32620;51.704;7.822;2022-11-28T05:32:43;6.90;99.90
46416;DHT22;32620;51.704;7.822;2022-11-28T05:35:09;6.90;99.90
46416;DHT22;32620;51.704;7.822;2022-11-28T05:37:34;6.90;99.90
46416;DHT22;32620;51.704;7.822;2022-11-28T05:39:59;6.90;99.90
46416;DHT22;32620;51.704;7.822;2022-11-28T05:42:25;6.90;99.90
46416;DHT22;32620;51.704;7.822;2022-11-28T05:44:52;6.90;99.90
46416;DHT22;32620;51.704;7.822;2022-11-28T05:47:18;6.90;99.90
46416;DHT22;32620;51.704;7.822;2022-11-28T05:49:44;6.90;99.90
46416;DHT22;32620;51.704;7.822;2022-11-28T05:52:10;6.90;99.90
46416;DHT22;32620;51.704;7.822;2022-11-28T05:54:36;6.90;99.90
46416;DHT22;32620;51.704;7.822;2022-11-28T05:57:01;6.90;99.90
46416;DHT22;32620;51.704;7.822;2022-11-28T05:59:27;6.90;99.90
46416;DHT22;32620;51.704;7.822;2022-11-28T06:01:52;6.90;99.90
46416;DHT22;32620;51.704;7.822;2022-11-28T06:04:18;6.90;99.90
46416;DHT22;32620;51.704;7.822;2022-11-28T06:06:43;7.00;99.90
46416;DHT22;32620;51.704;7.822;2022-11-28T06:09:09;7.00;99.90
46416;DHT22;32620;51.704;7.822;2022-11-28T06:11:34;7.00;99.90
46416;DHT22;32620;51.704;7.822;2022-11-28T06:14:00;7.00;99.90
46416;DHT22;32620;51.704;7.822;2022-11-28T06:16:28;7.00;99.90
46416;DHT22;32620;51.704;7.822;2022-11-28T06:18:54;7.00;99.90
46416;DHT22;32620;51.704;7.822;2022-11-28T06:21:20;7.00;99.90
46416;DHT22;32620;51.704;7.822;2022-11-28T06:23:46;7.00;99.90
46416;DHT22;32620;51.704;7.822;2022-11-28T06:26:13;7.00;99.90
46416;DHT22;32620;51.704;7.822;2022-11-28T06:28:39;6.90;99.90
46416;DHT22;32620;51.704;7.822;2022-11-28T06:31:10;6.90;99.90
46416;DHT22;32620;51.704;7.822;2022-11-28T06:33:35;6.90;99.90
46416;DHT22;32620;51.704;7.822;2022-11-28T06:36:01;6.90;99.90
46416;DHT22;32620;51.704;7.822;2022-11-28T06:38:28;6.80;99.90
46416;DHT22;32620;51.704;7.822;2022-11-28T06:40:57;6.80;99.90
46416;DHT22;32620;51.704;7.822;2022-11-28T06:43:23;6.80;99.90
46416;DHT22;32620;51.704;7.822;2022-11-28T06:45:49;6.80;99.90
46416;DHT22;32620;51.704;7.822;2022-11-28T06:48:14;6.70;99.90
46416;DHT22;32620;51.704;7.822;2022-11-28T06:50:39;6.70;99.90
46416;DHT22;32620;51.704;7.822;2022-11-28T06:53:05;6.80;99.90
46416;DHT22;32620;51.704;7.822;2022-11-28T06:55:31;6.70;99.90
46416;DHT22;32620;51.704;7.822;2022-11-28T06:57:56;6.70;99.90
46416;DHT22;32620;51.704;7.822;2022-11-28T07:00:21;6.70;99.90
46416;DHT22;32620;51.704;7.822;2022-11-28T07:02:47;6.80;99.90
46416;DHT22;32620;51.704;7.822;2022-11-28T07:05:12;6.70;99.90
46416;DHT22;32620;51.704;7.822;2022-11-28T07:07:41;6.70;99.90
46416;DHT22;32620;51.704;7.822;2022-11-28T07:10:07;6.80;99.90
46416;DHT22;32620;51.704;7.822;2022-11-28T07:12:32;6.80;99.90
46416;DHT22;32620;51.704;7.822;2022-11-28T07:14:58;6.80;99.90
46416;DHT22;32620;51.704;7.822;2022-11-28T07:17:23;6.90;99.90
46416;DHT22;32620;51.704;7.822;2022-11-28T07:19:48;6.90;99.90
46416;DHT22;32620;51.704;7.822;2022-11-28T07:22:14;6.90;99.90
46416;DHT22;32620;51.704;7.822;2022-11-28T07:24:39;6.90;99.90
46416;DHT22;32620;51.704;7.822;2022-11-28T07:27:05;6.90;99.90
46416;DHT22;32620;51.704;7.822;2022-11-28T07:29:30;6.80;99.90
46416;DHT22;32620;51.704;7.822;2022-11-28T07:32:01;6.80;99.90
46416;DHT22;32620;51.704;7.822;2022-11-28T07:34:27;6.70;99.90
46416;DHT22;32620;51.704;7.822;2022-11-28T07:36:52;6.70;99.90
46416;DHT22;32620;51.704;7.822;2022-11-28T07:39:18;6.80;99.90
46416;DHT22;32620;51.704;7.822;2022-11-28T07:41:43;6.80;99.90
46416;DHT22;32620;51.704;7.822;2022-11-28T07:44:09;6.70;99.90
46416;DHT22;32620;51.704;7.822;2022-11-28T07:46:35;6.70;99.90
46416;DHT22;32620;51.704;7.822;2022-11-28T07:49:01;6.80;99.90
46416;DHT22;32620;51.704;7.822;2022-11-28T07:51:28;6.80;99.90
46416;DHT22;32620;51.704;7.822;2022-11-28T07:53:54;6.70;99.90
46416;DHT22;32620;51.704;7.822;2022-11-28T07:56:21;6.80;99.90
46416;DHT22;32620;51.704;7.822;2022-11-28T07:58:46;6.80;99.90
46416;DHT22;32620;51.704;7.822;2022-11-28T08:01:14;6.80;99.90
46416;DHT22;32620;51.704;7.822;2022-11-28T08:03:40;6.80;99.90
46416;DHT22;32620;51.704;7.822;2022-11-28T08:06:06;6.80;99.90
46416;DHT22;32620;51.704;7.822;2022-11-28T08:08:32;6.80;99.90
46416;DHT22;32620;51.704;7.822;2022-11-28T08:10:58;6.90;99.90
46416;DHT22;32620;51.704;7.822;2022-11-28T08:13:24;6.90;99.90
46416;DHT22;32620;51.704;7.822;2022-11-28T08:15:50;6.90;99.90
46416;DHT22;32620;51.704;7.822;2022-11-28T08:18:15;7.00;99.90
46416;DHT22;32620;51.704;7.822;2022-11-28T08:20:41;7.10;99.90
46416;DHT22;32620;51.704;7.822;2022-11-28T08:23:07;7.10;99.90
46416;DHT22;32620;51.704;7.822;2022-11-28T08:25:32;7.10;99.90
46416;DHT22;32620;51.704;7.822;2022-11-28T08:27:58;7.20;99.90
46416;DHT22;32620;51.704;7.822;2022-11-28T08:30:23;7.20;99.90
46416;DHT22;32620;51.704;7.822;2022-11-28T08:32:49;7.20;99.90
46416;DHT22;32620;51.704;7.822;2022-11-28T08:35:14;7.30;99.90
46416;DHT22;32620;51.704;7.822;2022-11-28T08:37:40;7.30;99.90
46416;DHT22;32620;51.704;7.822;2022-11-28T08:40:05;7.30;99.90
46416;DHT22;32620;51.704;7.822;2022-11-28T08:42:31;7.30;99.90
46416;DHT22;32620;51.704;7.822;2022-11-28T08:44:57;7.40;99.90
46416;DHT22;32620;51.704;7.822;2022-11-28T08:47:22;7.40;99.90
46416;DHT22;32620;51.704;7.822;2022-11-28T08:49:47;7.50;99.90
46416;DHT22;32620;51.704;7.822;2022-11-28T08:52:13;7.50;99.90
46416;DHT22;32620;51.704;7.822;2022-11-28T08:54:38;7.60;99.90
46416;DHT22;32620;51.704;7.822;2022-11-28T08:57:05;7.70;99.90
46416;DHT22;32620;51.704;7.822;2022-11-28T08:59:31;7.70;99.90
46416;DHT22;32620;51.704;7.822;2022-11-28T09:01:56;7.70;99.90
46416;DHT22;32620;51.704;7.822;2022-11-28T09:04:21;7.80;99.90
46416;DHT22;32620;51.704;7.822;2022-11-28T09:06:48;7.80;99.90
46416;DHT22;32620;51.704;7.822;2022-11-28T09:09:13;7.80;99.90
46416;DHT22;32620;51.704;7.822;2022-11-28T09:11:39;7.90;99.90
46416;DHT22;32620;51.704;7.822;2022-11-28T09:14:05;7.90;99.90
46416;DHT22;32620;51.704;7.822;2022-11-28T09:16:31;7.90;99.90
46416;DHT22;32620;51.704;7.822;2022-11-28T09:18:56;7.90;99.90
46416;DHT22;32620;51.704;7.822;2022-11-28T09:21:23;7.90;99.90
46416;DHT22;32620;51.704;7.822;2022-11-28T09:23:49;7.90;99.90
46416;DHT22;32620;51.704;7.822;2022-11-28T09:26:17;7.90;99.90
46416;DHT22;32620;51.704;7.822;2022-11-28T09:28:43;7.90;99.90
46416;DHT22;32620;51.704;7.822;2022-11-28T09:31:09;8.00;99.90
46416;DHT22;32620;51.704;7.822;2022-11-28T09:33:36;8.00;99.90
46416;DHT22;32620;51.704;7.822;2022-11-28T09:36:04;8.10;99.90
46416;DHT22;32620;51.704;7.822;2022-11-28T09:38:29;8.10;99.90
46416;DHT22;32620;51.704;7.822;2022-11-28T09:40:54;8.10;99.90
46416;DHT22;32620;51.704;7.822;2022-11-28T09:43:25;8.10;99.90
46416;DHT22;32620;51.704;7.822;2022-11-28T09:45:52;8.20;99.90
46416;DHT22;32620;51.704;7.822;2022-11-28T09:48:51;8.10;99.90
46416;DHT22;32620;51.704;7.822;2022-11-28T09:51:05;8.10;99.90
46416;DHT22;32620;51.704;7.822;2022-11-28T09:53:40;8.10;99.90
46416;DHT22;32620;51.704;7.822;2022-11-28T09:56:08;8.20;99.90
46416;DHT22;32620;51.704;7.822;2022-11-28T10:04:11;8.10;99.90
46416;DHT22;32620;51.704;7.822;2022-11-28T10:06:42;8.30;99.90
46416;DHT22;32620;51.704;7.822;2022-11-28T10:09:15;8.20;99.90
46416;DHT22;32620;51.704;7.822;2022-11-28T10:11:48;8.30;99.90
46416;DHT22;32620;51.704;7.822;2022-11-28T10:15:08;8.30;99.90
46416;DHT22;32620;51.704;7.822;2022-11-28T10:19:51;8.40;99.90
46416;DHT22;32620;51.704;7.822;2022-11-28T10:22:19;8.40;99.90
46416;DHT22;32620;51.704;7.822;2022-11-28T10:24:47;8.40;99.90
46416;DHT22;32620;51.704;7.822;2022-11-28T10:27:14;8.40;99.90
46416;DHT22;32620;51.704;7.822;2022-11-28T10:29:43;8.50;99.90
46416;DHT22;32620;51.704;7.822;2022-11-28T10:32:13;8.60;99.90
46416;DHT22;32620;51.704;7.822;2022-11-28T10:34:41;8.50;99.90
46416;DHT22;32620;51.704;7.822;2022-11-28T10:37:10;8.40;99.90
46416;DHT22;32620;51.704;7.822;2022-11-28T10:39:38;8.40;99.90
46416;DHT22;32620;51.704;7.822;2022-11-28T10:42:10;8.50;99.90
46416;DHT22;32620;51.704;7.822;2022-11-28T10:44:42;8.50;99.90
46416;DHT22;32620;51.704;7.822;2022-11-28T10:47:17;8.60;99.90
46416;DHT22;32620;51.704;7.822;2022-11-28T10:50:04;8.50;99.90
46416;DHT22;32620;51.704;7.822;2022-11-28T10:52:33;8.50;99.90
46416;DHT22;32620;51.704;7.822;2022-11-28T10:55:35;8.50;99.90
46416;DHT22;32620;51.704;7.822;2022-11-28T11:00:32;8.50;99.90
46416;DHT22;32620;51.704;7.822;2022-11-28T11:02:59;8.50;99.90
46416;DHT22;32620;51.704;7.822;2022-11-28T11:05:27;8.60;99.90
46416;DHT22;32620;51.704;7.822;2022-11-28T11:07:54;8.60;99.90
46416;DHT22;32620;51.704;7.822;2022-11-28T11:10:36;8.60;99.90
46416;DHT22;32620;51.704;7.822;2022-11-28T11:13:12;8.60;99.90
46416;DHT22;32620;51.704;7.822;2022-11-28T11:15:38;8.60;99.90
46416;DHT22;32620;51.704;7.822;2022-11-28T11:18:04;8.70;99.90
46416;DHT22;32620;51.704;7.822;2022-11-28T11:20:32;8.70;99.90
46416;DHT22;32620;51.704;7.822;2022-11-28T11:22:59;8.80;99.90
46416;DHT22;32620;51.704;7.822;2022-11-28T11:25:26;8.80;99.90
46416;DHT22;32620;51.704;7.822;2022-11-28T11:27:53;8.80;99.90
46416;DHT22;32620;51.704;7.822;2022-11-28T11:30:35;8.80;99.90
46416;DHT22;32620;51.704;7.822;2022-11-28T11:33:11;8.80;99.90
46416;DHT22;32620;51.704;7.822;2022-11-28T11:35:46;8.70;99.90
46416;DHT22;32620;51.704;7.822;2022-11-28T11:38:14;8.70;99.90
46416;DHT22;32620;51.704;7.822;2022-11-28T11:40:41;8.70;99.90
46416;DHT22;32620;51.704;7.822;2022-11-28T11:43:21;8.60;99.90
46416;DHT22;32620;51.704;7.822;2022-11-28T11:45:47;8.60;99.90
46416;DHT22;32620;51.704;7.822;2022-11-28T11:48:45;8.60;99.90
46416;DHT22;32620;51.704;7.822;2022-11-28T11:51:27;8.60;99.90
46416;DHT22;32620;51.704;7.822;2022-11-28T11:54:24;8.50;99.90
46416;DHT22;32620;51.704;7.822;2022-11-28T11:56:39;8.50;99.90
46416;DHT22;32620;51.704;7.822;2022-11-28T11:59:12;8.60;99.90
46416;DHT22;32620;51.704;7.822;2022-11-28T12:01:38;8.60;99.90
46416;DHT22;32620;51.704;7.822;2022-11-28T12:04:04;8.50;99.90
46416;DHT22;32620;51.704;7.822;2022-11-28T12:06:32;8.50;99.90
46416;DHT22;32620;51.704;7.822;2022-11-28T12:09:07;8.50;99.90
46416;DHT22;32620;51.704;7.822;2022-11-28T12:11:38;8.50;99.90
46416;DHT22;32620;51.704;7.822;2022-11-28T12:14:35;8.50;99.90
46416;DHT22;32620;51.704;7.822;2022-11-28T12:19:42;8.60;99.90
46416;DHT22;32620;51.704;7.822;2022-11-28T12:22:17;8.60;99.90
46416;DHT22;32620;51.704;7.822;2022-11-28T12:24:50;8.60;99.90
46416;DHT22;32620;51.704;7.822;2022-11-28T12:30:24;8.60;99.90
46416;DHT22;32620;51.704;7.822;2022-11-28T12:32:56;8.70;99.90
46416;DHT22;32620;51.704;7.822;2022-11-28T12:38:46;8.70;99.90
46416;DHT22;32620;51.704;7.822;2022-11-28T12:46:17;8.70;99.90
46416;DHT22;32620;51.704;7.822;2022-11-28T12:51:32;8.70;99.90
46416;DHT22;32620;51.704;7.822;2022-11-28T12:54:04;8.70;99.90
46416;DHT22;32620;51.704;7.822;2022-11-28T12:59:21;8.70;99.90
46416;DHT22;32620;51.704;7.822;2022-11-28T13:02:06;8.70;99.90
46416;DHT22;32620;51.704;7.822;2022-11-28T13:10:12;8.80;99.90
46416;DHT22;32620;51.704;7.822;2022-11-28T13:18:14;8.70;99.90
46416;DHT22;32620;51.704;7.822;2022-11-28T13:20:45;8.70;99.90
46416;DHT22;32620;51.704;7.822;2022-11-28T13:23:24;8.70;99.90
46416;DHT22;32620;51.704;7.822;2022-11-28T13:26:02;8.60;99.90
46416;DHT22;32620;51.704;7.822;2022-11-28T13:28:36;8.60;99.90
46416;DHT22;32620;51.704;7.822;2022-11-28T13:31:04;8.60;99.90
46416;DHT22;32620;51.704;7.822;2022-11-28T13:33:37;8.60;99.90
46416;DHT22;32620;51.704;7.822;2022-11-28T13:36:04;8.70;99.90
46416;DHT22;32620;51.704;7.822;2022-11-28T13:38:38;8.60;99.90
46416;DHT22;32620;51.704;7.822;2022-11-28T13:41:11;8.60;99.90
46416;DHT22;32620;51.704;7.822;2022-11-28T13:44:14;8.70;99.90
46416;DHT22;32620;51.704;7.822;2022-11-28T13:46:23;8.60;99.90
46416;DHT22;32620;51.704;7.822;2022-11-28T13:48:50;8.60;99.90
46416;DHT22;32620;51.704;7.822;2022-11-28T13:51:19;8.60;99.90
46416;DHT22;32620;51.704;7.822;2022-11-28T13:53:46;8.60;99.90
46416;DHT22;32620;51.704;7.822;2022-11-28T13:56:21;8.60;99.90
46416;DHT22;32620;51.704;7.822;2022-11-28T13:59:02;8.60;99.90
46416;DHT22;32620;51.704;7.822;2022-11-28T14:01:30;8.50;99.90
46416;DHT22;32620;51.704;7.822;2022-11-28T14:06:27;8.40;99.90
46416;DHT22;32620;51.704;7.822;2022-11-28T14:10:30;8.40;99.90
46416;DHT22;32620;51.704;7.822;2022-11-28T14:11:45;8.30;99.90
46416;DHT22;32620;51.704;7.822;2022-11-28T14:17:01;8.40;99.90
46416;DHT22;32620;51.704;7.822;2022-11-28T14:22:49;8.30;99.90
46416;DHT22;32620;51.704;7.822;2022-11-28T14:25:01;8.30;99.90
46416;DHT22;32620;51.704;7.822;2022-11-28T14:27:29;8.30;99.90
46416;DHT22;32620;51.704;7.822;2022-11-28T14:29:56;8.40;99.90
46416;DHT22;32620;51.704;7.822;2022-11-28T14:32:27;8.30;99.90
46416;DHT22;32620;51.704;7.822;2022-11-28T14:34:54;8.40;99.90
46416;DHT22;32620;51.704;7.822;2022-11-28T14:39:51;8.30;99.90
46416;DHT22;32620;51.704;7.822;2022-11-28T14:44:55;8.30;99.90
46416;DHT22;32620;51.704;7.822;2022-11-28T14:52:43;8.30;99.90
46416;DHT22;32620;51.704;7.822;2022-11-28T14:57:51;8.30;99.90
46416;DHT22;32620;51.704;7.822;2022-11-28T15:00:21;8.30;99.90
46416;DHT22;32620;51.704;7.822;2022-11-28T15:05:28;8.30;99.90
46416;DHT22;32620;51.704;7.822;2022-11-28T15:10:42;8.20;99.90
46416;DHT22;32620;51.704;7.822;2022-11-28T15:13:20;8.20;99.90
46416;DHT22;32620;51.704;7.822;2022-11-28T15:15:50;8.20;99.90
46416;DHT22;32620;51.704;7.822;2022-11-28T15:18:17;8.20;99.90
46416;DHT22;32620;51.704;7.822;2022-11-28T15:20:44;8.20;99.90
46416;DHT22;32620;51.704;7.822;2022-11-28T15:23:28;8.20;99.90
46416;DHT22;32620;51.704;7.822;2022-11-28T15:25:54;8.10;99.90
46416;DHT22;32620;51.704;7.822;2022-11-28T15:28:21;8.20;99.90
46416;DHT22;32620;51.704;7.822;2022-11-28T15:30:49;8.10;99.90
46416;DHT22;32620;51.704;7.822;2022-11-28T15:33:15;8.10;99.90
46416;DHT22;32620;51.704;7.822;2022-11-28T15:35:50;8.10;99.90
46416;DHT22;32620;51.704;7.822;2022-11-28T15:38:18;8.10;99.90
46416;DHT22;32620;51.704;7.822;2022-11-28T15:40:48;8.10;99.90
46416;DHT22;32620;51.704;7.822;2022-11-28T15:43:14;8.00;99.90
46416;DHT22;32620;51.704;7.822;2022-11-28T15:45:40;8.00;99.90
46416;DHT22;32620;51.704;7.822;2022-11-28T15:48:38;8.00;99.90
46416;DHT22;32620;51.704;7.822;2022-11-28T15:50:52;8.00;99.90
46416;DHT22;32620;51.704;7.822;2022-11-28T15:53:18;8.00;99.90
46416;DHT22;32620;51.704;7.822;2022-11-28T15:55:44;8.00;99.90
46416;DHT22;32620;51.704;7.822;2022-11-28T15:58:25;8.00;99.90
46416;DHT22;32620;51.704;7.822;2022-11-28T16:00:56;8.00;99.90
46416;DHT22;32620;51.704;7.822;2022-11-28T16:03:25;7.90;99.90
46416;DHT22;32620;51.704;7.822;2022-11-28T16:05:52;8.00;99.90
46416;DHT22;32620;51.704;7.822;2022-11-28T16:08:21;7.90;99.90
46416;DHT22;32620;51.704;7.822;2022-11-28T16:10:49;7.90;99.90
46416;DHT22;32620;51.704;7.822;2022-11-28T16:13:15;7.90;99.90
46416;DHT22;32620;51.704;7.822;2022-11-28T16:15:44;7.90;99.90
46416;DHT22;32620;51.704;7.822;2022-11-28T16:18:12;7.80;99.90
46416;DHT22;32620;51.704;7.822;2022-11-28T16:20:38;7.80;99.90
46416;DHT22;32620;51.704;7.822;2022-11-28T16:23:07;7.80;99.90
46416;DHT22;32620;51.704;7.822;2022-11-28T16:25:33;7.80;99.90
46416;DHT22;32620;51.704;7.822;2022-11-28T16:27:59;7.70;99.90
46416;DHT22;32620;51.704;7.822;2022-11-28T16:30:25;7.70;99.90
46416;DHT22;32620;51.704;7.822;2022-11-28T16:32:52;7.70;99.90
46416;DHT22;32620;51.704;7.822;2022-11-28T16:35:27;7.70;99.90
46416;DHT22;32620;51.704;7.822;2022-11-28T16:38:24;7.70;99.90
46416;DHT22;32620;51.704;7.822;2022-11-28T16:40:39;7.70;99.90
46416;DHT22;32620;51.704;7.822;2022-11-28T16:43:14;7.60;99.90
46416;DHT22;32620;51.704;7.822;2022-11-28T16:45:42;7.60;99.90
46416;DHT22;32620;51.704;7.822;2022-11-28T16:48:11;7.60;99.90
46416;DHT22;32620;51.704;7.822;2022-11-28T16:50:39;7.60;99.90
46416;DHT22;32620;51.704;7.822;2022-11-28T16:53:55;7.60;99.90
46416;DHT22;32620;51.704;7.822;2022-11-28T16:56:26;7.60;99.90
46416;DHT22;32620;51.704;7.822;2022-11-28T16:59:08;7.60;99.90
46416;DHT22;32620;51.704;7.822;2022-11-28T17:01:35;7.60;99.90
46416;DHT22;32620;51.704;7.822;2022-11-28T17:04:01;7.60;99.90
46416;DHT22;32620;51.704;7.822;2022-11-28T17:06:28;7.60;99.90
46416;DHT22;32620;51.704;7.822;2022-11-28T17:08:55;7.50;99.90
46416;DHT22;32620;51.704;7.822;2022-11-28T17:11:21;7.50;99.90
46416;DHT22;32620;51.704;7.822;2022-11-28T17:13:47;7.50;99.90
46416;DHT22;32620;51.704;7.822;2022-11-28T17:16:14;7.50;99.90
46416;DHT22;32620;51.704;7.822;2022-11-28T17:18:40;7.50;99.90
46416;DHT22;32620;51.704;7.822;2022-11-28T17:21:07;7.50;99.90
46416;DHT22;32620;51.704;7.822;2022-11-28T17:23:33;7.50;99.90
46416;DHT22;32620;51.704;7.822;2022-11-28T17:25:58;7.50;99.90
46416;DHT22;32620;51.704;7.822;2022-11-28T17:28:24;7.50;99.90
46416;DHT22;32620;51.704;7.822;2022-11-28T17:30:49;7.50;99.90